Crooked Creek Research Lab Weather observations

Data are for 10 minute period ending at time listed.
 Day   Time    Ave.   Ave.  Ave.  Vector   Max.   Stn.    Total    Solar   Ave.   Snow 
  of    of     Air    Rel.  Wind   Wind    Wind   Baro.  Precip.   Rad.    Soil   Depth
Year   Day     Temp.  Hum.  Speed  Dir.    Gust   Pres.                    Temp.       
2015   (PST)    F      %     mph   deg.    mph     mb.     in.     W/m2     F      in. 
---------------------------------------------------------------------------------------  
 239    0:00   53.5    38    3.5    38      8.0   710.2    0.00       0    999.0    -0.7
 239    0:10   53.6    38    4.1    36      8.1   710.2    0.00       0    999.0    -0.7
 239    0:20   53.4    38    2.0    39      5.8   710.2    0.00       0    999.0    -0.7
 239    0:30   52.8    39    2.1    44      5.4   710.1    0.00       0    999.0    -0.7
 239    0:40   52.5    40    4.5    34      9.5   710.1    0.00       0    999.0    -0.7
 239    0:50   51.8    41    1.3    28      5.0   710.2    0.00       0    999.0    -0.8
 239    1:00   49.5    44    0.1   353      1.1   710.1    0.00       0    999.0    -0.8
 239    1:10   48.3    47    0.5   318      3.1   710.1    0.00       0    999.0    -0.7
 239    1:20   48.1    48    0.5    76      2.5   710.0    0.00       0    999.0    -0.7
 239    1:30   47.8    48    0.1   210      1.7   710.0    0.00       0    999.0    -0.7
 239    1:40   46.6    50    0.0     0      0.0   710.0    0.00       0    999.0    -0.8
 239    1:50   45.4    52    0.0   227      0.7   710.0    0.00       0    999.0    -0.8
 239    2:00   44.5    54    0.1   223      1.1   710.0    0.00       0    999.0    -0.8
 239    2:10   43.4    56    0.8   241      2.8   710.0    0.00       0    999.0    -0.7
 239    2:20   43.3    56    0.3   236      2.4   709.9    0.00       0    999.0    -0.7
 239    2:30   43.6    57    0.1   193      0.7   710.0    0.00       0    999.0    -0.7
 239    2:40   43.5    57    0.4   218      1.6   710.0    0.00       0    999.0    -0.7
 239    2:50   44.0    56    0.2   162      1.4   709.9    0.00       0    999.0    -0.7
 239    3:00   44.0    57    0.0   165      0.5   710.0    0.00       0    999.0    -0.6
 239    3:10   44.9    56    0.0   165      0.5   709.9    0.00       0    999.0    -0.6
 239    3:20   44.7    56    0.0     0      0.0   709.9    0.00       0    999.0    -0.6
 239    3:30   44.8    56    0.5   163      1.4   709.9    0.00       0    999.0    -0.8
 239    3:40   43.9    57    0.1   180      0.8   709.8    0.00       0    999.0    -0.7
 239    3:50   43.3    58    0.0     0      0.0   710.0    0.00       0    999.0    -0.8
 239    4:00   42.1    60    0.4   223      2.5   709.9    0.00       0    999.0    -0.8
 239    4:10   40.7    62    0.4   237      2.2   709.8    0.00       0    999.0    -0.8
 239    4:20   40.7    63    0.4   226      2.2   710.0    0.00       0    999.0    -0.6
 239    4:30   40.3    63    0.3   231      2.7   709.9    0.00       0    999.0    -0.7
 239    4:40   40.4    63    0.0   226      1.1   710.0    0.00       0    999.0    -0.6
 239    4:50   40.5    62    0.5   147      1.8   710.0    0.00       0    999.0    -0.7
 239    5:00   40.1    63    1.0   172      2.6   710.1    0.00       0    999.0    -0.7
 239    5:10   39.8    64    0.9   128      3.1   710.2    0.00       0    999.0    -0.6
 239    5:20   40.2    64    0.1   174      0.7   710.2    0.00       2    999.0    -0.6
 239    5:30   41.0    63    0.0     0      0.0   710.2    0.00       5    999.0    -0.6
 239    5:40   41.0    63    0.1   173      0.9   710.3    0.00      12    999.0    -0.7
 239    5:50   41.0    63    0.3   167      1.8   710.3    0.00      20    999.0    -0.7
 239    6:00   40.8    64    0.2   166      1.2   710.3    0.00      22    999.0    -0.6
 239    6:10   41.2    64    0.1   169      1.2   710.4    0.00      34    999.0    -0.6
 239    6:20   42.1    63    0.2   171      1.1   710.5    0.00      42    999.0    -0.7
 239    6:30   42.7    64    0.0   171      0.4   710.4    0.00      34    999.0    -0.6
 239    6:40   44.1    62    1.0   149      2.0   710.4    0.00      32    999.0    -0.6
 239    6:50   45.9    58    1.5   119      2.4   710.5    0.00      35    999.0    -0.6
 239    7:00   47.2    54    2.4   120      2.9   710.6    0.00      94    999.0    -0.7
 239    7:10   50.4    48    1.5   118      2.5   710.6    0.00     298    999.0    -0.8
 239    7:20   53.3    44    1.5   115      2.1   710.7    0.00     310    999.0    -0.8
 239    7:30   55.6    43    1.1   124      2.0   710.8    0.00     365    999.0    -0.8
 239    7:40   58.0    40    0.5   220      2.5   710.8    0.00     402    999.0    -0.8
 239    7:50   58.7    39    1.7   355      4.2   710.8    0.00     433    999.0    -0.9
 239    8:00   59.6    38    2.0    46      5.0   710.9    0.00     467    999.0    -0.8
 239    8:10   60.7    36    2.0    93      5.3   711.0    0.00     501    999.0    -0.8
 239    8:20   60.7    36    2.5   148     11.5   711.0    0.00     519    999.0    -0.8
 239    8:30   59.8    36    3.5   124      7.7   711.0    0.00     532    999.0    -0.7
 239    8:40   59.7    36    3.1   109      7.5   711.0    0.00     564    999.0    -0.7
 239    8:50   60.0    37    4.4   127      9.8   711.2    0.00     643    999.0    -0.6
 239    9:00   60.9    36    3.2    97      9.7   711.0    0.00     706    999.0    -0.7
 239    9:10   61.0    35    3.9   119      9.9   711.2    0.00     704    999.0    -0.6
 239    9:20   61.3    35    4.9   142     13.7   711.2    0.00     738    999.0    -0.7
 239    9:30   61.3    35    4.1   132     10.7   711.3    0.00     792    999.0    -0.7
 239    9:40   61.5    35    4.8    97     11.6   711.3    0.00     803    999.0    -0.6
 239    9:50   61.6    34    5.9   109     12.1   711.4    0.00     810    999.0    -0.6
 239   10:00   61.6    34    4.9   120      9.8   711.4    0.00     783    999.0    -0.7
 239   10:10   62.5    33    3.1    88     11.2   711.2    0.00     861    999.0    -0.7
 239   10:20   62.2    33    5.5   123     15.8   711.4    0.00     825    999.0    -0.7
 239   10:30   62.0    34    4.6   110      9.7   711.4    0.00     729    999.0    -0.6
 239   10:40   61.9    34    4.9   122     14.3   711.4    0.00     597    999.0    -0.6
 239   10:50   60.4    36    4.4   170     12.2   711.2    0.00     310    999.0    -0.6
 239   11:00   60.2    36    4.3   148     10.9   711.2    0.00     361    999.0    -0.5
 239   11:10   60.9    35    3.2   242      7.1   711.2    0.00     655    999.0    -0.5
 239   11:20   61.4    34    3.7   189      9.4   711.2    0.00     441    999.0    -0.6
 239   11:30   61.4    34    1.7   168      6.2   711.0    0.00     348    999.0    -0.6
 239   11:40   61.9    34    2.7    77      7.5   711.0    0.00     474    999.0    -0.6
 239   11:50   64.0    32    3.9   176     10.2   710.9    0.00    1038    999.0    -0.3
 239   12:00   64.1    32    4.5   234     15.2   710.9    0.00     462    999.0    -0.7
 239   12:10   61.9    33    2.0   179      6.0   711.0    0.00     229    999.0    -0.6
 239   12:20   61.5    34    4.6   119     13.3   710.9    0.00     276    999.0    -0.5
 239   12:30   61.3    33    2.6   214      6.4   710.8    0.00     222    999.0    -0.6
 239   12:40   61.1    34    2.7   151      7.4   710.8    0.00     185    999.0    -0.6
 239   12:50   60.8    35    4.2    70      9.3   710.5    0.00     275    999.0    -0.5
 239   13:00   62.3    34    5.4   270     13.2   710.6    0.00     515    999.0    -0.5
 239   13:10   64.2    29    4.0   235     10.1   710.5    0.00     992    999.0    -0.6
 239   13:20   63.9    30    4.0   234     13.0   710.4    0.00     308    999.0    -0.6
 239   13:30   63.1    29    4.6   236     12.2   710.4    0.00     439    999.0    -0.5
 239   13:40   63.2    30    4.9   234     12.0   710.3    0.00     297    999.0    -0.5
 239   13:50   63.4    30    5.6   251     14.5   710.2    0.00     500    999.0    -0.5
 239   14:00   64.0    29    5.1   261     13.1   710.2    0.00     428    999.0    -0.6
 239   14:10   63.4    31    4.5   244     11.0   710.3    0.00     496    999.0    -0.5
 239   14:20   65.9    28    2.9   223     10.9   710.0    0.00     833    999.0    -0.7
 239   14:30   65.9    27    3.9   217     12.2   709.9    0.00     765    999.0    -0.7
 239   14:40   65.8    26    4.3   266     11.5   709.8    0.00     698    999.0    -0.7
 239   14:50   65.7    28    6.1   261     12.8   709.8    0.00     489    999.0    -0.6
 239   15:00   65.7    27    4.4   277     11.9   709.8    0.00     565    999.0    -0.6
 239   15:10   65.9    28    5.5   256     12.3   709.8    0.00     621    999.0    -0.6
 239   15:20   65.6    27    5.2   264     13.7   709.7    0.00     494    999.0    -0.6
 239   15:30   65.4    27    6.4   265     14.4   709.7    0.00     497    999.0    -0.6
 239   15:40   64.7    27    5.8   256     12.8   709.7    0.00     302    999.0    -0.5
 239   15:50   64.3    27    4.6   239      9.6   709.5    0.00     397    999.0    -0.5
 239   16:00   65.0    27    5.2   226     12.1   709.5    0.00     403    999.0    -0.6
 239   16:10   64.2    28    6.3   240     14.0   709.5    0.00     335    999.0    -0.6
 239   16:20   63.8    29    6.1   254     11.9   709.5    0.00     298    999.0    -0.6
 239   16:30   63.6    29    4.7   234     11.0   709.5    0.00     246    999.0    -0.6
 239   16:40   63.4    29    4.8   246      9.0   709.5    0.00     223    999.0    -0.5
 239   16:50   63.5    29    3.9   234      8.8   709.4    0.00     196    999.0    -0.6
 239   17:00   63.0    30    4.5   245      8.8   709.4    0.00     169    999.0    -0.6
 239   17:10   62.8    30    4.5   238      9.9   709.4    0.00     156    999.0    -0.6
 239   17:20   62.5    30    4.8   239      7.6   709.4    0.00     129    999.0    -0.6
 239   17:30   62.2    30    3.9   237      7.7   709.4    0.00      92    999.0    -0.6
 239   17:40   61.5    31    3.4   220      6.1   709.3    0.00      59    999.0    -0.6
 239   17:50   60.8    32    4.0   248      7.2   709.3    0.00      40    999.0    -0.6
 239   18:00   60.3    32    2.3   217      5.8   709.2    0.00      23    999.0    -0.6
 239   18:10   59.7    33    0.9   154      3.0   709.2    0.00      15    999.0    -0.6
 239   18:20   58.8    34    0.5   224      2.3   709.2    0.00       8    999.0    -0.7
 239   18:30   57.2    36    0.9   222      4.2   709.1    0.00       3    999.0    -0.7
 239   18:40   56.2    37    1.3   170      2.9   709.2    0.00       1    999.0    -0.7
 239   18:50   54.9    38    1.3   223      4.8   709.2    0.00       0    999.0    -0.7
 239   19:00   53.5    40    0.9   321      2.5   709.3    0.00       0    999.0    -0.7
 239   19:10   51.6    42    0.5   107      2.5   709.3    0.00       0    999.0    -0.7
 239   19:20   51.6    42    0.5   126      1.8   709.5    0.00       0    999.0    -0.8
 239   19:30   50.5    45    0.6   132      2.3   709.6    0.00       0    999.0    -0.7
 239   19:40   50.0    47    0.9   131      2.6   709.6    0.00       0    999.0    -0.7
 239   19:50   49.3    48    1.0   228      2.7   709.6    0.00       0    999.0    -0.7
 239   20:00   49.4    48    0.1   219      1.2   709.6    0.00       0    999.0    -0.6
 239   20:10   48.8    48    1.3   235      4.1   709.7    0.00       0    999.0    -0.8
 239   20:20   48.0    51    0.5   224      2.7   709.8    0.00       0    999.0    -0.7
 239   20:30   48.0    51    0.9   129      2.8   709.8    0.00       0    999.0    -0.7
 239   20:40   47.7    52    0.3   182      1.6   709.8    0.00       0    999.0    -0.7
 239   20:50   47.4    52    0.6   134      2.0   709.8    0.00       0    999.0    -0.7
 239   21:00   46.6    53    0.3   126      1.7   709.8    0.00       0    999.0    -0.7
 239   21:10   45.8    55    0.2   192      1.0   709.8    0.00       0    999.0    -0.7
 239   21:20   45.5    56    0.6   210      2.1   709.8    0.00       0    999.0    -0.7
 239   21:30   44.8    57    1.3   236      3.9   709.8    0.00       0    999.0    -0.7
 239   21:40   44.8    58    0.6   239      3.0   709.8    0.00       0    999.0    -0.6
 239   21:50   46.3    56    1.4   211      3.4   709.7    0.00       0    999.0    -0.6
 239   22:00   47.0    55    1.6   206      3.8   709.7    0.00       0    999.0    -0.7
 239   22:10   46.7    55    0.1   221      1.2   709.7    0.00       0    999.0    -0.7
 239   22:20   45.8    57    0.7   227      3.8   709.5    0.00       0    999.0    -0.7
 239   22:30   45.3    58    0.3   147      2.0   709.5    0.00       0    999.0    -0.7
 239   22:40   44.8    59    0.3   219      1.9   709.5    0.00       0    999.0    -0.6
 239   22:50   44.9    59    0.5   232      2.0   709.5    0.00       0    999.0    -0.7
 239   23:00   44.7    59    0.5   184      1.8   709.6    0.00       0    999.0    -0.6
 239   23:10   45.3    58    1.0   204      4.5   709.5    0.00       0    999.0    -0.7

Return to Crooked Creek Research Lab graphs page.


Western Regional Climate Center,wrcc@dri.edu